| time (UTC) | temp C | wind direction | speed KPH | gust KPH | rain 1hr cm | rain 24hr cm | rain mn cm | humidity % | barometer mb |
| 20260510045044 | 12 | 150 | 8.0 | 12.9 | 0.00 | 0.00 | 0.03 | 80 | 1011.4 |
| 20260510044524 | 12 | 159 | 8.0 | 12.9 | 0.00 | 0.00 | 0.03 | 80 | 1011.7 |
| 20260510044003 | 13 | 165 | 8.0 | 8.0 | 0.00 | 0.00 | 0.03 | 80 | 1011.6 |
| 20260510043444 | 12 | 160 | 8.0 | 8.0 | 0.00 | 0.00 | 0.03 | 79 | 1011.4 |
| 20260510042924 | 13 | 164 | 11.3 | 16.1 | 0.00 | 0.00 | 0.03 | 79 | 1011.5 |
| 20260510042404 | 13 | 150 | 12.9 | 16.1 | 0.00 | 0.00 | 0.03 | 79 | 1011.4 |
| 20260510041845 | 13 | 142 | 9.7 | 12.9 | 0.00 | 0.00 | 0.03 | 78 | 1011.5 |
| 20260510041325 | 12 | 160 | 9.7 | 12.9 | 0.00 | 0.00 | 0.03 | 78 | 1011.6 |
| 20260510040804 | 13 | 159 | 8.0 | 12.9 | 0.00 | 0.00 | 0.03 | 78 | 1011.6 |
| 20260510040246 | 13 | 164 | 11.3 | 16.1 | 0.00 | 0.00 | 0.03 | 77 | 1011.6 |
| 20260510035724 | 13 | 165 | 6.4 | 8.0 | 0.00 | 0.00 | 0.03 | 76 | 1011.8 |
| 20260510035205 | 13 | 172 | 12.9 | 16.1 | 0.00 | 0.00 | 0.03 | 77 | 1011.7 |
| 20260510034645 | 13 | 157 | 14.5 | 20.9 | 0.00 | 0.00 | 0.03 | 75 | 1011.7 |
| 20260510034124 | 15 | 159 | 12.9 | 16.1 | 0.00 | 0.00 | 0.03 | 72 | 1011.6 |
| 20260510033604 | 14 | 158 | 12.9 | 16.1 | 0.00 | 0.00 | 0.03 | 77 | 1011.9 |
| 20260510033044 | 13 | 170 | 11.3 | 12.9 | 0.00 | 0.00 | 0.03 | 78 | 1011.7 |
| 20260510032525 | 13 | 150 | 11.3 | 16.1 | 0.00 | 0.00 | 0.03 | 77 | 1011.8 |
| 20260510032004 | 15 | 146 | 6.4 | 12.9 | 0.00 | 0.00 | 0.03 | 74 | 1011.7 |
| 20260510031446 | 14 | 165 | 6.4 | 8.0 | 0.00 | 0.00 | 0.03 | 77 | 1011.9 |
| 20260510030925 | 13 | 159 | 11.3 | 12.9 | 0.00 | 0.00 | 0.03 | 76 | 1011.8 |
| 20260510030405 | 14 | 160 | 11.3 | 20.9 | 0.00 | 0.00 | 0.03 | 75 | 1012.0 |
| 20260510025845 | 13 | 147 | 9.7 | 12.9 | 0.00 | 0.00 | 0.03 | 77 | 1011.9 |
| 20260510025324 | 13 | 167 | 9.7 | 12.9 | 0.00 | 0.00 | 0.03 | 79 | 1012.1 |
| 20260510024804 | 12 | 152 | 12.9 | 16.1 | 0.00 | 0.00 | 0.03 | 80 | 1012.1 |
| 20260510024245 | 12 | 140 | 9.7 | 12.9 | 0.00 | 0.00 | 0.03 | 79 | 1012.1 |
| 20260510023725 | 13 | 141 | 6.4 | 8.0 | 0.00 | 0.00 | 0.03 | 80 | 1012.1 |
| 20260510023204 | 13 | 157 | 12.9 | 16.1 | 0.00 | 0.00 | 0.03 | 79 | 1012.4 |
| 20260510022644 | 13 | 157 | 9.7 | 12.9 | 0.00 | 0.00 | 0.03 | 79 | 1012.3 |
| 20260510022124 | 13 | 170 | 11.3 | 16.1 | 0.00 | 0.00 | 0.03 | 79 | 1012.3 |
| 20260510021604 | 13 | 161 | 9.7 | 12.9 | 0.00 | 0.00 | 0.03 | 79 | 1012.6 |
| 20260510021045 | 13 | 159 | 8.0 | 12.9 | 0.00 | 0.00 | 0.03 | 80 | 1012.7 |
| 20260510020524 | 13 | 176 | 11.3 | 16.1 | 0.00 | 0.00 | 0.03 | 80 | 1012.5 |
| 20260510020005 | 12 | 159 | 9.7 | 12.9 | 0.00 | 0.00 | 0.03 | 80 | 1012.6 |
| 20260510015445 | 12 | 143 | 6.4 | 12.9 | 0.00 | 0.00 | 0.03 | 80 | 1012.5 |
| 20260510014924 | 13 | 163 | 9.7 | 12.9 | 0.00 | 0.00 | 0.03 | 79 | 1012.8 |
| 20260510014404 | 12 | 181 | 9.7 | 12.9 | 0.00 | 0.00 | 0.03 | 80 | 1012.8 |
| 20260510013844 | 12 | 171 | 12.9 | 16.1 | 0.00 | 0.00 | 0.03 | 81 | 1012.9 |
| 20260510013324 | 12 | 144 | 9.7 | 16.1 | 0.00 | 0.00 | 0.03 | 81 | 1013.0 |
| 20260510012804 | 13 | 154 | 8.0 | 8.0 | 0.00 | 0.00 | 0.03 | 80 | 1013.0 |
| 20260510012245 | 12 | 166 | 12.9 | 20.9 | 0.00 | 0.00 | 0.03 | 82 | 1013.1 |
| 20260510011726 | 12 | 155 | 14.5 | 20.9 | 0.00 | 0.00 | 0.03 | 83 | 1013.0 |
| 20260510011204 | 12 | 155 | 12.9 | 16.1 | 0.00 | 0.00 | 0.03 | 84 | 1013.3 |
| 20260510010644 | 12 | 165 | 11.3 | 20.9 | 0.00 | 0.00 | 0.03 | 84 | 1013.1 |
| 20260510010126 | 12 | 141 | 8.0 | 12.9 | 0.00 | 0.00 | 0.03 | 85 | 1013.2 |
| 20260510005604 | 11 | 165 | 9.7 | 12.9 | 0.00 | 0.00 | 0.03 | 86 | 1013.0 |
| 20260510005045 | 11 | 158 | 14.5 | 20.9 | 0.00 | 0.00 | 0.03 | 88 | 1013.3 |
| 20260510004524 | 11 | 172 | 14.5 | 16.1 | 0.00 | 0.00 | 0.03 | 89 | 1013.0 |
| 20260510004004 | 11 | 178 | 12.9 | 16.1 | 0.00 | 0.00 | 0.03 | 92 | 1013.3 |
| 20260510003445 | 11 | 178 | 16.1 | 16.1 | 0.00 | 0.00 | 0.03 | 94 | 1013.1 |
| 20260510002925 | 11 | 168 | 12.9 | 16.1 | 0.00 | 0.00 | 0.03 | 96 | 1013.0 |
| 20260510002405 | 11 | 158 | 8.0 | 12.9 | 0.00 | 0.00 | 0.03 | 98 | 1013.2 |
| 20260510001845 | 11 | 178 | 8.0 | 12.9 | 0.00 | 0.00 | 0.03 | 99 | 1013.3 |
| 20260510001325 | 11 | 158 | 8.0 | 12.9 | 0.00 | 0.00 | 0.03 | 99 | 1013.2 |
| 20260510000805 | 11 | 154 | 9.7 | 16.1 | 0.00 | 0.00 | 0.03 | 99 | 1013.1 |
| 20260510000245 | 10 | 174 | 8.0 | 12.9 | 0.00 | 0.00 | 0.03 | 99 | 1013.1 |
| 20260509235725 | 10 | 175 | 12.9 | 16.1 | 0.00 | 0.00 | 0.03 | 99 | 1013.1 |
| 20260509235205 | 10 | 147 | 8.0 | 12.9 | 0.00 | 0.00 | 0.03 | 99 | 1013.2 |
| 20260509234646 | 10 | 180 | 8.0 | 12.9 | 0.00 | 0.00 | 0.03 | 99 | 1013.2 |
| 20260509234125 | 10 | 164 | 9.7 | 12.9 | 0.00 | 0.00 | 0.03 | 99 | 1013.3 |
| 20260509233606 | 10 | 170 | 8.0 | 12.9 | 0.00 | 0.00 | 0.03 | 99 | 1013.0 |
| 20260509233045 | 10 | 177 | 9.7 | 12.9 | 0.00 | 0.00 | 0.03 | 99 | 1012.8 |
| 20260509232525 | 10 | 171 | 9.7 | 12.9 | 0.00 | 0.00 | 0.03 | 99 | 1013.0 |
| 20260509232005 | 10 | 151 | 9.7 | 16.1 | 0.00 | 0.00 | 0.03 | 99 | 1013.1 |
| 20260509231445 | 10 | 155 | 11.3 | 12.9 | 0.00 | 0.00 | 0.03 | 99 | 1013.1 |
| 20260509230925 | 10 | 187 | 8.0 | 12.9 | 0.00 | 0.00 | 0.03 | 99 | 1012.7 |
| 20260509230405 | 10 | 176 | 8.0 | 12.9 | 0.00 | 0.00 | 0.03 | 99 | 1012.9 |
| 20260509225845 | 10 | 131 | 9.7 | 16.1 | 0.00 | 0.00 | 0.03 | 99 | 1013.1 |
| 20260509225325 | 10 | 155 | 12.9 | 16.1 | 0.00 | 0.00 | 0.03 | 99 | 1012.9 |
| 20260509224804 | 10 | 155 | 11.3 | 16.1 | 0.00 | 0.00 | 0.03 | 99 | 1012.7 |
| 20260509224245 | 10 | 173 | 9.7 | 16.1 | 0.00 | 0.00 | 0.03 | 99 | 1012.7 |
| 20260509223725 | 10 | 158 | 11.3 | 16.1 | 0.00 | 0.00 | 0.03 | 99 | 1012.7 |
| 20260509223205 | 10 | 163 | 11.3 | 12.9 | 0.00 | 0.00 | 0.03 | 99 | 1012.7 |
| 20260509222645 | 10 | 188 | 8.0 | 12.9 | 0.00 | 0.00 | 0.03 | 99 | 1012.7 |
| 20260509222130 | 10 | 160 | 11.3 | 16.1 | 0.00 | 0.00 | 0.03 | 99 | 1012.6 |
| 20260509221620 | 10 | 157 | 11.3 | 16.1 | 0.00 | 0.00 | 0.03 | 99 | 1012.8 |
| 20260509221100 | 10 | 151 | 8.0 | 12.9 | 0.00 | 0.00 | 0.03 | 99 | 1012.5 |
| 20260509220540 | 10 | 162 | 11.3 | 12.9 | 0.00 | 0.00 | 0.03 | 99 | 1012.6 |
| 20260509220025 | 10 | 161 | 14.5 | 16.1 | 0.00 | 0.00 | 0.03 | 99 | 1012.3 |
| 20260509215515 | 10 | 150 | 12.9 | 16.1 | 0.00 | 0.00 | 0.03 | 99 | 1012.5 |
| 20260509214956 | 10 | 147 | 3.2 | 8.0 | 0.00 | 0.00 | 0.03 | 99 | 1012.2 |
| 20260509172245 | 11 | 177 | 8.0 | 8.0 | 0.00 | 0.00 | 0.00 | 99 | 1010.3 |
| 20260509171725 | 11 | 152 | 8.0 | 8.0 | 0.00 | 0.00 | 0.00 | 99 | 1010.3 |
| 20260509171205 | 11 | 167 | 8.0 | 12.9 | 0.00 | 0.00 | 0.00 | 99 | 1010.1 |
| 20260509170646 | 11 | 163 | 11.3 | 12.9 | 0.00 | 0.00 | 0.00 | 99 | 1010.3 |
| 20260509170124 | 11 | 164 | 11.3 | 12.9 | 0.00 | 0.00 | 0.00 | 99 | 1010.4 |
| 20260509165604 | 11 | 148 | 8.0 | 12.9 | 0.00 | 0.00 | 0.00 | 99 | 1010.2 |
| 20260509165045 | 11 | 164 | 8.0 | 12.9 | 0.00 | 0.00 | 0.00 | 99 | 1010.2 |
| 20260509164525 | 11 | 171 | 11.3 | 16.1 | 0.00 | 0.00 | 0.00 | 99 | 1010.2 |
| 20260509164004 | 11 | 157 | 11.3 | 12.9 | 0.00 | 0.00 | 0.00 | 99 | 1010.2 |
| 20260509163445 | 11 | 162 | 9.7 | 12.9 | 0.00 | 0.00 | 0.00 | 99 | 1010.2 |
| 20260509162924 | 11 | 162 | 9.7 | 16.1 | 0.00 | 0.00 | 0.00 | 99 | 1010.3 |
| 20260509162404 | 11 | 160 | 8.0 | 8.0 | 0.00 | 0.00 | 0.00 | 99 | 1010.4 |
| 20260509161845 | 11 | 184 | 8.0 | 8.0 | 0.00 | 0.00 | 0.00 | 99 | 1010.4 |
| 20260509161324 | 11 | 167 | 8.0 | 12.9 | 0.00 | 0.00 | 0.00 | 99 | 1010.2 |
| 20260509160803 | 11 | 179 | 9.7 | 12.9 | 0.00 | 0.00 | 0.00 | 99 | 1010.6 |
| 20260509160245 | 11 | 159 | 9.7 | 12.9 | 0.00 | 0.00 | 0.00 | 99 | 1010.3 |
| 20260509155723 | 11 | 159 | 8.0 | 12.9 | 0.00 | 0.00 | 0.00 | 99 | 1010.3 |
| 20260509155203 | 11 | 164 | 8.0 | 12.9 | 0.00 | 0.00 | 0.00 | 99 | 1010.6 |
| 20260509154645 | 11 | 189 | 6.4 | 12.9 | 0.00 | 0.00 | 0.00 | 99 | 1010.4 |
| 20260509154123 | 11 | 153 | 8.0 | 12.9 | 0.00 | 0.00 | 0.00 | 99 | 1010.4 |
| 20260509153603 | 11 | 161 | 9.7 | 12.9 | 0.00 | 0.00 | 0.00 | 99 | 1010.2 |
| 20260509153045 | 11 | 144 | 9.7 | 12.9 | 0.00 | 0.00 | 0.00 | 99 | 1010.3 |
| 20260509152523 | 11 | 164 | 9.7 | 12.9 | 0.00 | 0.00 | 0.00 | 99 | 1010.4 |
| 20260509152003 | 11 | 165 | 8.0 | 8.0 | 0.00 | 0.00 | 0.00 | 99 | 1010.4 |
| 20260509151444 | 11 | 156 | 6.4 | 8.0 | 0.00 | 0.00 | 0.00 | 99 | 1010.3 |
| 20260509150924 | 11 | 176 | 8.0 | 8.0 | 0.00 | 0.00 | 0.00 | 99 | 1010.4 |
| 20260509150404 | 11 | 160 | 11.3 | 16.1 | 0.00 | 0.00 | 0.00 | 99 | 1010.4 |
| 20260509145845 | 11 | 159 | 11.3 | 12.9 | 0.00 | 0.00 | 0.00 | 99 | 1010.4 |
| 20260509145324 | 11 | 161 | 12.9 | 16.1 | 0.00 | 0.00 | 0.00 | 99 | 1010.5 |
| 20260509144805 | 11 | 153 | 12.9 | 16.1 | 0.00 | 0.00 | 0.00 | 99 | 1010.4 |
| 20260509144244 | 11 | 161 | 9.7 | 12.9 | 0.00 | 0.00 | 0.00 | 99 | 1010.2 |
| 20260509143724 | 11 | 154 | 11.3 | 12.9 | 0.00 | 0.00 | 0.00 | 99 | 1010.4 |
| 20260509143206 | 11 | 169 | 9.7 | 12.9 | 0.00 | 0.00 | 0.00 | 99 | 1010.6 |
| 20260509142646 | 11 | 169 | 9.7 | 12.9 | 0.00 | 0.00 | 0.00 | 99 | 1010.5 |
| 20260509142124 | 11 | 168 | 9.7 | 12.9 | 0.00 | 0.00 | 0.00 | 99 | 1010.5 |
| 20260509141605 | 11 | 171 | 9.7 | 12.9 | 0.00 | 0.00 | 0.00 | 99 | 1010.4 |
| 20260509141046 | 11 | 155 | 12.9 | 16.1 | 0.00 | 0.00 | 0.00 | 99 | 1010.4 |
| 20260509140524 | 11 | 164 | 11.3 | 12.9 | 0.00 | 0.00 | 0.00 | 99 | 1010.5 |
| 20260509135845 | 11 | 174 | 9.7 | 12.9 | 0.00 | 0.00 | 0.05 | 98 | 1010.4 |
| 20260509135323 | 11 | 168 | 4.8 | 8.0 | 0.00 | 0.00 | 0.05 | 98 | 1010.5 |
| 20260509134803 | 11 | 174 | 4.8 | 8.0 | 0.00 | 0.00 | 0.05 | 98 | 1010.6 |
| 20260509134245 | 11 | 184 | 8.0 | 12.9 | 0.00 | 0.00 | 0.05 | 98 | 1010.5 |
| 20260509133723 | 11 | 161 | 6.4 | 8.0 | 0.00 | 0.00 | 0.05 | 98 | 1010.5 |
| 20260509133203 | 11 | 137 | 9.7 | 16.1 | 0.00 | 0.00 | 0.05 | 98 | 1010.5 |
| 20260509132645 | 11 | 143 | 8.0 | 12.9 | 0.00 | 0.00 | 0.05 | 98 | 1010.4 |
| 20260509132129 | 11 | 183 | 9.7 | 12.9 | 0.00 | 0.00 | 0.05 | 98 | 1010.7 |
| 20260509131619 | 11 | 163 | 6.4 | 8.0 | 0.00 | 0.00 | 0.05 | 98 | 1010.6 |
| 20260509131059 | 11 | 164 | 11.3 | 16.1 | 0.00 | 0.00 | 0.05 | 98 | 1010.3 |
| 20260509130539 | 11 | 158 | 11.3 | 16.1 | 0.00 | 0.00 | 0.05 | 98 | 1010.5 |
| 20260509130024 | 11 | 159 | 9.7 | 12.9 | 0.00 | 0.00 | 0.05 | 98 | 1010.5 |
| 20260509125517 | 11 | 162 | 12.9 | 16.1 | 0.00 | 0.00 | 0.05 | 98 | 1010.6 |
| 20260509124956 | 11 | 158 | 11.3 | 16.1 | 0.00 | 0.00 | 0.05 | 98 | 1010.7 |
| 20260509124435 | 11 | 169 | 12.9 | 20.9 | 0.00 | 0.00 | 0.05 | 98 | 1010.7 |
| 20260509123924 | 11 | 158 | 8.0 | 12.9 | 0.00 | 0.00 | 0.05 | 98 | 1010.5 |
| 20260509123412 | 11 | 162 | 9.7 | 12.9 | 0.00 | 0.00 | 0.05 | 98 | 1010.6 |
| 20260509122834 | 11 | 178 | 12.9 | 16.1 | 0.00 | 0.00 | 0.05 | 98 | 1010.5 |
| 20260509122306 | 11 | 176 | 9.7 | 12.9 | 0.00 | 0.00 | 0.05 | 98 | 1010.7 |
| 20260509121741 | 11 | 167 | 11.3 | 12.9 | 0.00 | 0.00 | 0.05 | 98 | 1010.6 |
| 20260509121212 | 11 | 174 | 11.3 | 16.1 | 0.00 | 0.00 | 0.05 | 98 | 1010.5 |
| 20260509120649 | 11 | 154 | 12.9 | 16.1 | 0.00 | 0.00 | 0.05 | 98 | 1010.8 |
| 20260509120126 | 11 | 180 | 14.5 | 16.1 | 0.00 | 0.00 | 0.05 | 98 | 1010.4 |
| 20260509115602 | 11 | 166 | 11.3 | 16.1 | 0.00 | 0.00 | 0.05 | 98 | 1010.5 |
| 20260509115044 | 11 | 175 | 12.9 | 16.1 | 0.00 | 0.00 | 0.05 | 98 | 1010.7 |
| 20260509114524 | 11 | 154 | 8.0 | 12.9 | 0.00 | 0.00 | 0.05 | 98 | 1010.6 |
| 20260509114004 | 11 | 177 | 9.7 | 12.9 | 0.00 | 0.00 | 0.05 | 98 | 1010.6 |
| 20260509113444 | 11 | 154 | 8.0 | 12.9 | 0.00 | 0.00 | 0.05 | 98 | 1010.4 |
| 20260509112923 | 11 | 165 | 4.8 | 8.0 | 0.00 | 0.00 | 0.05 | 98 | 1010.5 |
| 20260509112403 | 10 | 180 | 8.0 | 8.0 | 0.00 | 0.00 | 0.05 | 97 | 1010.6 |
| 20260509111845 | 10 | 166 | 6.4 | 8.0 | 0.00 | 0.00 | 0.05 | 97 | 1010.4 |
| 20260509111324 | 10 | 169 | 8.0 | 12.9 | 0.00 | 0.00 | 0.05 | 97 | 1010.4 |
| 20260509110803 | 10 | 180 | 4.8 | 8.0 | 0.00 | 0.00 | 0.05 | 97 | 1010.5 |
| 20260509110246 | 10 | 174 | 4.8 | 8.0 | 0.00 | 0.00 | 0.05 | 97 | 1010.2 |
| 20260509105723 | 11 | 174 | 4.8 | 8.0 | 0.00 | 0.00 | 0.05 | 97 | 1010.3 |
| 20260509105204 | 11 | 160 | 8.0 | 12.9 | 0.00 | 0.00 | 0.05 | 97 | 1010.4 |
| 20260509104645 | 11 | 168 | 8.0 | 12.9 | 0.00 | 0.00 | 0.05 | 97 | 1010.4 |
| 20260509104124 | 11 | 168 | 8.0 | 8.0 | 0.00 | 0.00 | 0.05 | 97 | 1010.2 |
| 20260509103603 | 11 | 176 | 8.0 | 12.9 | 0.00 | 0.00 | 0.05 | 97 | 1010.4 |
| 20260509103044 | 11 | 164 | 8.0 | 12.9 | 0.00 | 0.00 | 0.05 | 96 | 1010.5 |
| 20260509102522 | 11 | 165 | 8.0 | 12.9 | 0.00 | 0.00 | 0.05 | 96 | 1010.2 |
| 20260509102003 | 11 | 154 | 6.4 | 8.0 | 0.00 | 0.00 | 0.05 | 96 | 1010.2 |
| 20260509101442 | 11 | 166 | 8.0 | 8.0 | 0.00 | 0.00 | 0.05 | 96 | 1010.1 |
| 20260509100923 | 11 | 146 | 4.8 | 8.0 | 0.00 | 0.00 | 0.05 | 96 | 1010.2 |
| 20260509100403 | 11 | 169 | 6.4 | 8.0 | 0.00 | 0.00 | 0.05 | 96 | 1010.2 |
| 20260509095844 | 11 | 157 | 3.2 | 4.8 | 0.00 | 0.00 | 0.05 | 96 | 1010.0 |
| 20260509095323 | 11 | 158 | 4.8 | 8.0 | 0.00 | 0.00 | 0.05 | 96 | 1010.2 |
| 20260509094815 | 11 | 164 | 4.8 | 8.0 | 0.00 | 0.00 | 0.05 | 96 | 1010.1 |
| 20260509094242 | 11 | 155 | 8.0 | 8.0 | 0.00 | 0.00 | 0.05 | 96 | 1010.1 |
| 20260509093723 | 11 | 155 | 4.8 | 8.0 | 0.00 | 0.00 | 0.05 | 95 | 1010.1 |
| 20260509093203 | 11 | 157 | 8.0 | 12.9 | 0.00 | 0.00 | 0.05 | 95 | 1010.2 |
| 20260509092642 | 11 | 153 | 11.3 | 12.9 | 0.00 | 0.00 | 0.05 | 95 | 1009.9 |
| 20260509092122 | 11 | 156 | 11.3 | 16.1 | 0.00 | 0.00 | 0.05 | 95 | 1010.0 |
| 20260509091602 | 11 | 164 | 9.7 | 12.9 | 0.00 | 0.00 | 0.05 | 95 | 1009.8 |
| 20260509091042 | 11 | 153 | 9.7 | 12.9 | 0.00 | 0.00 | 0.05 | 95 | 1009.9 |
| 20260509090522 | 11 | 181 | 11.3 | 16.1 | 0.00 | 0.00 | 0.05 | 95 | 1009.8 |
| 20260509090003 | 11 | 163 | 11.3 | 16.1 | 0.00 | 0.00 | 0.05 | 95 | 1009.7 |
| 20260509085442 | 11 | 173 | 12.9 | 16.1 | 0.00 | 0.00 | 0.05 | 94 | 1009.7 |
| 20260509084922 | 11 | 152 | 11.3 | 16.1 | 0.00 | 0.00 | 0.05 | 94 | 1009.6 |
| 20260509084402 | 11 | 159 | 11.3 | 12.9 | 0.00 | 0.00 | 0.05 | 94 | 1009.8 |
| 20260509083843 | 11 | 163 | 14.5 | 16.1 | 0.00 | 0.00 | 0.05 | 94 | 1009.6 |
| 20260509083322 | 11 | 157 | 16.1 | 20.9 | 0.00 | 0.00 | 0.05 | 94 | 1009.4 |
| 20260509082802 | 11 | 169 | 11.3 | 16.1 | 0.00 | 0.00 | 0.05 | 94 | 1009.4 |
| 20260509082242 | 11 | 160 | 8.0 | 12.9 | 0.00 | 0.00 | 0.05 | 94 | 1009.3 |
| 20260509081723 | 11 | 164 | 8.0 | 12.9 | 0.00 | 0.00 | 0.05 | 94 | 1009.3 |
| 20260509081202 | 11 | 155 | 9.7 | 12.9 | 0.00 | 0.00 | 0.05 | 94 | 1009.4 |
| 20260509080642 | 11 | 150 | 8.0 | 12.9 | 0.00 | 0.00 | 0.05 | 94 | 1009.2 |
| 20260509080123 | 11 | 165 | 8.0 | 12.9 | 0.00 | 0.00 | 0.05 | 94 | 1009.4 |
| 20260509075603 | 11 | 182 | 9.7 | 12.9 | 0.00 | 0.00 | 0.05 | 94 | 1009.3 |
| 20260509075042 | 11 | 165 | 9.7 | 12.9 | 0.00 | 0.00 | 0.05 | 94 | 1009.4 |
| 20260509074522 | 11 | 183 | 9.7 | 12.9 | 0.00 | 0.00 | 0.05 | 94 | 1009.2 |
| 20260509074004 | 11 | 177 | 12.9 | 16.1 | 0.00 | 0.00 | 0.05 | 93 | 1009.2 |
| 20260509073444 | 11 | 170 | 9.7 | 12.9 | 0.00 | 0.00 | 0.05 | 94 | 1009.1 |
| 20260509072923 | 12 | 162 | 14.5 | 20.9 | 0.00 | 0.00 | 0.05 | 93 | 1008.9 |
| 20260509072402 | 12 | 166 | 14.5 | 16.1 | 0.00 | 0.00 | 0.05 | 93 | 1008.7 |
| 20260509071842 | 12 | 171 | 16.1 | 20.9 | 0.00 | 0.00 | 0.05 | 93 | 1008.9 |
| 20260509071322 | 12 | 176 | 14.5 | 20.9 | 0.00 | 0.00 | 0.05 | 93 | 1008.8 |
| 20260509070803 | 12 | 166 | 12.9 | 16.1 | 0.00 | 0.00 | 0.05 | 93 | 1008.7 |
| 20260509070242 | 12 | 173 | 9.7 | 12.9 | 0.00 | 0.00 | 0.05 | 92 | 1008.7 |
| 20260509065723 | 12 | 172 | 12.9 | 16.1 | 0.00 | 0.00 | 0.05 | 92 | 1008.8 |
| 20260509065203 | 12 | 164 | 14.5 | 16.1 | 0.00 | 0.00 | 0.05 | 92 | 1008.5 |
| 20260509064644 | 12 | 172 | 14.5 | 16.1 | 0.00 | 0.00 | 0.05 | 92 | 1008.7 |
| 20260509064124 | 12 | 179 | 11.3 | 16.1 | 0.00 | 0.00 | 0.05 | 92 | 1008.8 |
| 20260509063603 | 12 | 169 | 11.3 | 12.9 | 0.00 | 0.00 | 0.05 | 92 | 1008.6 |
| 20260509063044 | 12 | 171 | 12.9 | 20.9 | 0.00 | 0.00 | 0.05 | 92 | 1008.7 |
| 20260509062522 | 12 | 175 | 9.7 | 12.9 | 0.00 | 0.00 | 0.05 | 92 | 1008.8 |
| 20260509062003 | 12 | 186 | 9.7 | 12.9 | 0.00 | 0.00 | 0.05 | 92 | 1008.8 |
| 20260509061446 | 12 | 182 | 9.7 | 12.9 | 0.00 | 0.00 | 0.05 | 92 | 1008.5 |
| 20260509060924 | 12 | 175 | 9.7 | 12.9 | 0.00 | 0.00 | 0.05 | 92 | 1008.9 |
| 20260509060404 | 12 | 178 | 11.3 | 16.1 | 0.00 | 0.00 | 0.05 | 91 | 1008.7 |
| 20260509055844 | 12 | 172 | 17.7 | 20.9 | 0.00 | 0.00 | 0.05 | 91 | 1008.6 |
| 20260509055328 | 12 | 177 | 11.3 | 12.9 | 0.00 | 0.00 | 0.05 | 91 | 1008.6 |
| 20260509054818 | 12 | 171 | 14.5 | 20.9 | 0.00 | 0.00 | 0.05 | 93 | 1008.2 |
| 20260509054258 | 12 | 178 | 12.9 | 16.1 | 0.00 | 0.00 | 0.05 | 95 | 1008.6 |
| 20260509053738 | 12 | 169 | 11.3 | 20.9 | 0.00 | 0.00 | 0.05 | 96 | 1008.6 |
| 20260509053224 | 12 | 169 | 11.3 | 20.9 | 0.00 | 0.00 | 0.05 | 97 | 1008.6 |
| 20260509052714 | 12 | 156 | 11.3 | 12.9 | 0.00 | 0.00 | 0.05 | 98 | 1008.4 |
| 20260509052154 | 12 | 171 | 11.3 | 16.1 | 0.00 | 0.00 | 0.05 | 98 | 1008.5 |
| 20260509051634 | 12 | 185 | 9.7 | 16.1 | 0.00 | 0.00 | 0.05 | 99 | 1008.5 |
| 20260509051124 | 12 | 182 | 11.3 | 16.1 | 0.00 | 0.00 | 0.05 | 99 | 1008.4 |
| 20260509050611 | 12 | 178 | 9.7 | 12.9 | 0.00 | 0.00 | 0.05 | 99 | 1008.6 |
| 20260509050050 | 12 | 179 | 11.3 | 16.1 | 0.00 | 0.00 | 0.05 | 99 | 1008.6 |
| 20260509045530 | 12 | 169 | 9.7 | 12.9 | 0.00 | 0.00 | 0.05 | 99 | 1008.6 |